Time;durP1;ratioP1;P1;durP2;ratioP2;P2;SDS_P1;SDS_P2;PMS_P1;PMS_P2;Temp;Humidity;BMP_temperature;BMP_pressure;BME280_temperature;BME280_humidity;BME280_pressure;Samples;Min_cycle;Max_cycle;Signal;HPM_P1;HPM_P2
2024/04/11 00:04:49;;;;;;;15.60;11.70;;;;;;;10.36;75.67;100265.61;227215;1270;22549;-74
2024/04/11 00:09:51;;;;;;;14.10;11.40;;;;;;;10.31;75.77;100270.60;227362;1267;22532;-73
2024/04/11 00:14:53;;;;;;;14.30;11.40;;;;;;;10.30;76.11;100263.05;227400;1272;22558;-74
2024/04/11 00:19:57;;;;;;;12.50;11.10;;;;;;;10.28;76.09;100261.95;227314;1266;22558;-73
2024/04/11 00:24:59;;;;;;;16.10;10.30;;;;;;;10.28;75.99;100253.16;227381;1267;24290;-73
2024/04/11 00:30:02;;;;;;;14.40;9.20;;;;;;;10.30;76.22;100254.07;227296;1272;22536;-73
2024/04/11 00:35:04;;;;;;;13.30;9.40;;;;;;;10.32;76.17;100259.78;227373;1269;22652;-73
2024/04/11 00:40:07;;;;;;;13.80;9.80;;;;;;;10.36;76.48;100257.29;227357;1272;24245;-74
2024/04/11 00:45:10;;;;;;;15.30;9.80;;;;;;;10.38;76.20;100251.27;227399;1267;22516;-72
2024/04/11 00:50:13;;;;;;;11.40;9.60;;;;;;;10.38;75.98;100243.14;227299;1270;22536;-73
2024/04/11 00:55:16;;;;;;;11.50;9.40;;;;;;;10.37;76.25;100244.05;227365;1267;25282;-73
2024/04/11 01:00:18;;;;;;;13.70;9.90;;;;;;;10.35;76.32;100244.00;227349;1269;25236;-74
2024/04/11 01:05:20;;;;;;;12.20;9.70;;;;;;;10.38;76.46;100245.52;227330;1270;22565;-73
2024/04/11 01:10:22;;;;;;;13.20;9.70;;;;;;;10.39;76.30;100241.13;227295;1269;22531;-74
2024/04/11 01:15:24;;;;;;;12.40;9.30;;;;;;;10.42;76.37;100242.59;227168;1269;256497;-74
2024/04/11 01:20:26;;;;;;;14.00;9.60;;;;;;;10.41;76.38;100251.67;227281;1265;25354;-73
2024/04/11 01:25:29;;;;;;;13.10;10.30;;;;;;;10.37;76.46;100253.14;227327;1269;22542;-73
2024/04/11 01:30:32;;;;;;;15.20;10.40;;;;;;;10.36;76.69;100251.80;227290;1266;22539;-73
2024/04/11 01:35:34;;;;;;;13.40;10.60;;;;;;;10.32;76.76;100245.89;227330;1267;22542;-74
2024/04/11 01:40:36;;;;;;;12.60;10.60;;;;;;;10.31;77.00;100244.64;227332;1269;22542;-74
2024/04/11 01:45:39;;;;;;;14.60;11.60;;;;;;;10.31;77.01;100241.80;227342;1266;22552;-74
2024/04/11 01:50:41;;;;;;;13.00;10.80;;;;;;;10.30;77.23;100243.14;227147;1266;25106;-74
2024/04/11 01:55:44;;;;;;;13.40;10.80;;;;;;;10.30;77.52;100242.25;227331;1269;22551;-73
2024/04/11 02:00:47;;;;;;;13.00;10.20;;;;;;;10.30;77.31;100239.09;227193;1268;22604;-73
2024/04/11 02:05:49;;;;;;;14.00;10.80;;;;;;;10.31;77.56;100236.81;227296;1269;22539;-74
2024/04/11 02:10:51;;;;;;;15.30;11.10;;;;;;;10.33;77.60;100239.15;227164;1272;22541;-74
2024/04/11 02:15:56;;;;;;;12.80;10.40;;;;;;;10.33;77.61;100239.11;227180;1272;24235;-74
2024/04/11 02:20:58;;;;;;;14.20;10.80;;;;;;;10.31;77.45;100239.82;227101;1267;22619;-73
2024/04/11 02:26:00;;;;;;;14.80;11.50;;;;;;;10.29;77.60;100241.13;227342;1269;25262;-74
2024/04/11 02:31:02;;;;;;;13.20;11.10;;;;;;;10.24;77.65;100245.23;227297;1269;23588;-74
2024/04/11 02:36:06;;;;;;;12.70;10.40;;;;;;;10.19;77.75;100241.98;227144;1267;22559;-74
2024/04/11 02:41:08;;;;;;;14.20;10.80;;;;;;;10.12;77.82;100245.37;227174;1270;22761;-73
2024/04/11 02:46:15;;;;;;;13.30;11.10;;;;;;;10.03;78.00;100244.84;227321;1269;22538;-73
2024/04/11 02:51:21;;;;;;;13.80;11.10;;;;;;;9.94;78.04;100241.10;227300;1269;22539;-74
2024/04/11 02:56:23;;;;;;;15.00;11.50;;;;;;;9.84;78.08;100244.16;227328;1269;22571;-74
2024/04/11 03:01:25;;;;;;;13.90;10.70;;;;;;;9.71;78.29;100244.91;227109;1271;23632;-73
2024/04/11 03:06:27;;;;;;;15.90;12.60;;;;;;;9.54;78.16;100250.06;227338;1270;22649;-74
2024/04/11 03:11:29;;;;;;;14.10;12.20;;;;;;;9.38;78.42;100252.85;227319;1267;22614;-73
2024/04/11 03:16:31;;;;;;;14.60;12.20;;;;;;;9.24;78.76;100250.05;227390;1272;22931;-74
2024/04/11 03:21:34;;;;;;;20.60;15.60;;;;;;;9.11;78.90;100253.59;227326;1269;22544;-74
2024/04/11 03:26:35;;;;;;;16.20;11.90;;;;;;;8.99;79.11;100263.66;227316;1269;25438;-73
2024/04/11 03:31:37;;;;;;;19.30;12.90;;;;;;;8.86;79.23;100272.75;227363;1272;23275;-74
2024/04/11 03:36:44;;;;;;;17.40;12.50;;;;;;;8.74;79.59;100272.48;227323;1269;22534;-74
2024/04/11 03:41:49;;;;;;;18.10;13.90;;;;;;;8.61;79.69;100277.33;227328;1267;22531;-74
2024/04/11 03:46:52;;;;;;;22.00;16.00;;;;;;;8.52;79.78;100275.58;227298;1269;22639;-74
2024/04/11 03:52:05;;;;;;;21.00;16.30;;;;;;;8.44;80.16;100269.77;227365;1272;23482;-74
2024/04/11 03:57:07;;;;;;;18.00;14.60;;;;;;;8.40;80.36;100272.73;227355;1272;22535;-74
2024/04/11 04:02:08;;;;;;;18.50;14.30;;;;;;;8.40;80.53;100281.18;227314;1267;23617;-74
2024/04/11 04:07:11;;;;;;;16.40;13.40;;;;;;;8.42;80.85;100277.83;227175;1266;24248;-74
2024/04/11 04:12:13;;;;;;;16.10;13.00;;;;;;;8.45;80.79;100278.24;227131;1272;22674;-74
2024/04/11 04:17:16;;;;;;;18.20;13.50;;;;;;;8.50;80.80;100280.76;227273;1270;22566;-73
2024/04/11 04:22:18;;;;;;;18.90;13.00;;;;;;;8.59;80.97;100284.07;227315;1270;22614;-74
2024/04/11 04:27:21;;;;;;;15.50;11.90;;;;;;;8.69;81.13;100285.57;227157;1272;22562;-73
2024/04/11 04:32:23;;;;;;;13.90;11.40;;;;;;;8.82;81.09;100288.98;227292;1270;22563;-74
2024/04/11 04:37:25;;;;;;;14.90;11.80;;;;;;;8.96;81.07;100293.85;227191;1269;22571;-75
2024/04/11 04:42:28;;;;;;;15.30;11.60;;;;;;;9.12;81.01;100293.55;227313;1270;22542;-73
2024/04/11 04:47:34;;;;;;;14.70;11.00;;;;;;;9.30;80.90;100294.05;227435;1267;22542;-73
2024/04/11 04:52:38;;;;;;;14.50;11.10;;;;;;;9.47;80.82;100299.58;227371;1269;24219;-74
2024/04/11 04:57:40;;;;;;;12.90;10.00;;;;;;;9.65;80.48;100303.58;227341;1266;22537;-74
2024/04/11 05:02:42;;;;;;;16.10;10.10;;;;;;;9.82;80.34;100306.54;227123;1272;22543;-74
2024/04/11 05:07:45;;;;;;;15.80;9.80;;;;;;;9.97;80.00;100300.50;227337;1269;25338;-74
2024/04/11 05:12:49;;;;;;;15.10;9.50;;;;;;;10.13;79.85;100299.83;227334;1266;22531;-74
2024/04/11 05:17:51;;;;;;;11.10;9.00;;;;;;;10.27;79.48;100304.13;227325;1270;22916;-74
2024/04/11 05:22:56;;;;;;;11.20;8.80;;;;;;;10.43;79.28;100306.30;227374;1266;23347;-74
2024/04/11 05:27:58;;;;;;;10.50;8.40;;;;;;;10.59;78.91;100313.46;227374;1267;24712;-74
2024/04/11 05:33:00;;;;;;;10.20;8.30;;;;;;;10.77;78.49;100314.13;227324;1269;22546;-74
2024/04/11 05:38:02;;;;;;;11.00;8.10;;;;;;;10.91;77.98;100314.35;227189;1266;25311;-75
2024/04/11 05:43:06;;;;;;;11.50;8.60;;;;;;;11.04;77.64;100321.75;227308;1269;22566;-74
2024/04/11 05:48:13;;;;;;;15.00;9.00;;;;;;;11.11;77.53;100325.07;227248;1272;22675;-74
2024/04/11 05:53:15;;;;;;;13.10;9.00;;;;;;;11.16;77.35;100323.66;227257;1269;24255;-74
2024/04/11 05:58:19;;;;;;;11.90;8.50;;;;;;;11.23;77.36;100325.21;226912;1260;22697;-73
2024/04/11 06:03:21;;;;;;;12.30;8.80;;;;;;;11.31;77.06;100326.00;226474;1257;22540;-76
2024/04/11 06:08:23;;;;;;;14.00;9.90;;;;;;;11.45;77.08;100328.52;226398;1260;22539;-75
2024/04/11 06:13:27;;;;;;;20.00;10.90;;;;;;;11.66;76.89;100326.48;226812;1260;23068;-73
2024/04/11 06:18:35;;;;;;;14.60;9.80;;;;;;;11.88;76.23;100328.16;226547;1250;22543;-74
2024/04/11 06:23:37;;;;;;;12.50;8.30;;;;;;;12.12;76.04;100333.40;226554;1260;22539;-74
2024/04/11 06:28:39;;;;;;;11.00;8.80;;;;;;;12.38;75.46;100336.88;226291;1257;24378;-74
2024/04/11 06:33:41;;;;;;;11.70;8.60;;;;;;;12.63;74.66;100341.64;226003;1248;22534;-74
2024/04/11 06:38:43;;;;;;;11.30;7.90;;;;;;;12.87;74.42;100351.59;226378;1251;23469;-74
2024/04/11 06:43:46;;;;;;;10.50;7.50;;;;;;;13.15;74.03;100358.13;226262;1257;24394;-73
2024/04/11 06:48:49;;;;;;;12.20;8.20;;;;;;;13.43;73.13;100366.79;226507;1264;22549;-73
2024/04/11 06:53:52;;;;;;;9.60;7.20;;;;;;;13.71;72.89;100364.77;226516;1254;24891;-73
2024/04/11 06:58:55;;;;;;;9.60;6.00;;;;;;;13.98;71.91;100362.08;226657;1257;22535;-71
2024/04/11 07:04:00;;;;;;;8.20;6.00;;;;;;;14.19;70.99;100361.16;226601;1253;22533;-72
2024/04/11 07:09:03;;;;;;;9.30;5.80;;;;;;;14.39;70.69;100357.30;226686;1260;22532;-73
2024/04/11 07:14:11;;;;;;;8.80;5.70;;;;;;;14.60;70.19;100356.84;226771;1260;22534;-72
2024/04/11 07:19:14;;;;;;;9.00;5.70;;;;;;;14.77;69.76;100358.66;226696;1253;22528;-73
2024/04/11 07:24:17;;;;;;;7.60;5.30;;;;;;;14.96;69.24;100361.04;226525;1258;22545;-73
2024/04/11 07:29:21;;;;;;;9.40;5.60;;;;;;;15.14;68.75;100363.15;226694;1253;24382;-73
2024/04/11 07:34:24;;;;;;;9.90;5.00;;;;;;;15.30;68.44;100359.57;226576;1266;22577;-74
2024/04/11 07:39:26;;;;;;;7.80;4.70;;;;;;;15.38;67.26;100367.23;226728;1264;22644;-73
2024/04/11 07:44:28;;;;;;;9.00;4.80;;;;;;;15.42;66.77;100366.56;226691;1256;22530;-72
2024/04/11 07:49:34;;;;;;;8.80;5.00;;;;;;;15.44;66.31;100367.27;226811;1254;24540;-73
2024/04/11 07:54:37;;;;;;;7.60;5.00;;;;;;;15.55;65.92;100365.45;226674;1253;22536;-73
2024/04/11 07:59:48;;;;;;;8.80;5.50;;;;;;;15.68;65.56;100369.37;226585;1256;22554;-71
2024/04/11 08:04:51;;;;;;;9.10;5.60;;;;;;;15.76;64.86;100365.61;226735;1267;24295;-73
2024/04/11 08:09:55;;;;;;;8.10;4.00;;;;;;;15.90;64.85;100372.63;226834;1250;24250;-73
2024/04/11 08:14:58;;;;;;;5.40;2.10;;;;;;;16.03;64.10;100369.98;226801;1251;22535;-74
2024/04/11 08:19:59;;;;;;;5.20;2.50;;;;;;;16.10;63.01;100366.17;226933;1257;23006;-74
2024/04/11 08:25:01;;;;;;;5.20;2.30;;;;;;;16.17;62.51;100374.89;226972;1251;22522;-73
2024/04/11 08:30:06;;;;;;;6.60;3.80;;;;;;;16.19;61.42;100373.48;227047;1264;24302;-72
2024/04/11 08:35:08;;;;;;;4.90;3.40;;;;;;;16.13;61.13;100375.02;227019;1267;22591;-71
2024/04/11 08:40:10;;;;;;;6.90;4.80;;;;;;;16.04;61.29;100379.59;226946;1264;25329;-71
2024/04/11 08:45:13;;;;;;;9.00;5.40;;;;;;;16.07;61.29;100379.88;227267;1269;22583;-73
2024/04/11 08:50:16;;;;;;;12.30;4.90;;;;;;;16.07;60.60;100378.20;226597;1254;22638;-74
2024/04/11 08:55:19;;;;;;;7.10;5.30;;;;;;;16.11;60.52;100378.27;227095;1267;22579;-75
2024/04/11 09:00:21;;;;;;;8.10;5.30;;;;;;;16.17;59.99;100375.23;227037;1251;22543;-75
2024/04/11 09:05:23;;;;;;;9.20;5.40;;;;;;;16.27;60.21;100371.50;226866;1267;22638;-75
2024/04/11 09:10:25;;;;;;;9.30;4.80;;;;;;;16.43;59.86;100368.09;226874;1270;22568;-75
2024/04/11 09:15:27;;;;;;;7.20;5.10;;;;;;;16.59;59.34;100364.77;226968;1269;22539;-77
2024/04/11 09:20:32;;;;;;;9.20;4.40;;;;;;;16.71;58.97;100364.19;226811;1260;22543;-73
2024/04/11 09:25:34;;;;;;;8.10;4.10;;;;;;;16.82;58.91;100368.86;226914;1263;22535;-73
2024/04/11 09:30:39;;;;;;;8.30;4.80;;;;;;;16.85;58.12;100365.98;226734;1264;22576;-73
2024/04/11 09:35:46;;;;;;;6.80;4.20;;;;;;;16.88;57.47;100365.71;227035;1254;22548;-74
2024/04/11 09:40:53;;;;;;;5.40;3.40;;;;;;;16.79;56.60;100362.08;226841;1266;22602;-73
2024/04/11 09:45:59;;;;;;;3.10;2.80;;;;;;;16.85;56.72;100364.77;227133;1269;22547;-73
2024/04/11 09:51:05;;;;;;;3.70;2.70;;;;;;;16.98;56.32;100362.31;226847;1253;22629;-75
2024/04/11 09:56:11;;;;;;;5.30;2.60;;;;;;;17.14;56.06;100358.15;226919;1266;22532;-74
2024/04/11 10:01:31;;;;;;;2.60;2.40;;;;;;;17.30;55.86;100360.77;226947;1269;22543;-74
2024/04/11 10:06:35;;;;;;;4.30;2.90;;;;;;;17.51;55.74;100354.52;227076;1272;22549;-75
2024/04/11 10:11:42;;;;;;;3.80;2.60;;;;;;;17.65;54.95;100361.14;226680;1250;22601;-74
2024/04/11 10:16:49;;;;;;;4.10;2.70;;;;;;;17.76;54.80;100353.98;226896;1270;23081;-73
2024/04/11 10:21:52;;;;;;;5.30;3.30;;;;;;;17.96;54.55;100354.06;226789;1264;22925;-75
2024/04/11 10:27:09;;;;;;;4.50;3.30;;;;;;;18.09;53.86;100351.73;226722;1253;22549;-74
2024/04/11 10:32:13;;;;;;;6.80;3.40;;;;;;;18.15;53.62;100348.73;226813;1272;22563;-74
2024/04/11 10:37:23;;;;;;;4.40;3.00;;;;;;;18.37;53.70;100342.48;227016;1265;22560;-76
2024/04/11 10:42:36;;;;;;;4.00;3.10;;;;;;;18.67;53.68;100336.77;226768;1269;22575;-76
2024/04/11 10:47:39;;;;;;;6.10;4.80;;;;;;;18.86;53.08;100332.11;226973;1267;22539;-76
2024/04/11 10:52:45;;;;;;;5.70;4.30;;;;;;;18.78;52.91;100326.75;226864;1263;25410;-76
2024/04/11 10:57:56;;;;;;;5.40;3.80;;;;;;;18.79;53.09;100325.14;227063;1270;22538;-75
2024/04/11 11:03:11;;;;;;;5.90;4.30;;;;;;;18.86;53.31;100332.77;226879;1269;22541;-75
2024/04/11 11:08:14;;;;;;;4.50;3.80;;;;;;;18.81;52.75;100330.50;226797;1258;22535;-77
2024/04/11 11:13:16;;;;;;;6.00;3.70;;;;;;;18.64;52.64;100330.17;227024;1272;22544;-75
2024/04/11 11:18:20;;;;;;;6.20;4.30;;;;;;;18.62;52.95;100330.09;227013;1258;22551;-75
2024/04/11 11:23:26;;;;;;;5.80;4.50;;;;;;;18.67;53.03;100325.41;227147;1257;22558;-75
2024/04/11 11:28:28;;;;;;;5.80;4.20;;;;;;;18.79;52.77;100327.41;226908;1266;22681;-75
2024/04/11 11:33:30;;;;;;;6.20;4.60;;;;;;;18.81;52.60;100319.45;226781;1258;25428;-75
2024/04/11 11:38:33;;;;;;;5.80;4.50;;;;;;;18.95;52.44;100319.98;226942;1272;22534;-75
2024/04/11 11:43:43;;;;;;;6.00;4.80;;;;;;;19.04;52.29;100321.17;226857;1261;23637;-77
2024/04/11 11:48:46;;;;;;;5.20;4.40;;;;;;;19.03;51.97;100319.52;226625;1263;22549;-76
2024/04/11 11:53:49;;;;;;;5.80;4.30;;;;;;;19.02;52.05;100316.30;226837;1272;22532;-74
2024/04/11 11:58:54;;;;;;;6.20;4.70;;;;;;;19.04;51.82;100318.78;226889;1263;22526;-75
2024/04/11 12:03:56;;;;;;;5.00;3.80;;;;;;;19.09;51.41;100308.33;226763;1254;24275;-74
2024/04/11 12:09:11;;;;;;;4.80;4.00;;;;;;;19.11;51.49;100300.77;226901;1253;22576;-75
2024/04/11 12:14:22;;;;;;;6.90;4.20;;;;;;;19.55;52.18;100296.71;226784;1254;22582;-76
2024/04/11 12:19:28;;;;;;;5.90;4.10;;;;;;;19.91;51.20;100292.64;226980;1271;22544;-74
2024/04/11 12:24:31;;;;;;;6.20;4.40;;;;;;;20.05;50.82;100288.54;226855;1257;22545;-75
2024/04/11 12:29:33;;;;;;;5.10;4.30;;;;;;;19.96;50.23;100282.84;226770;1257;22572;-76
2024/04/11 12:34:37;;;;;;;6.00;4.20;;;;;;;19.86;50.49;100277.67;226718;1254;22558;-75
2024/04/11 12:39:45;;;;;;;5.80;3.80;;;;;;;19.69;50.44;100271.37;226769;1264;22542;-75
2024/04/11 12:44:47;;;;;;;4.90;3.90;;;;;;;19.50;50.42;100262.60;226960;1267;22546;-75
2024/04/11 12:49:49;;;;;;;5.80;4.30;;;;;;;19.50;50.88;100261.83;226685;1251;23029;-74
2024/04/11 12:55:00;;;;;;;4.80;3.30;;;;;;;19.71;51.17;100265.13;227006;1270;22586;-78
2024/04/11 13:00:35;;;;;;;4.00;3.60;;;;;;;19.89;50.86;100265.36;227128;1269;22539;-74
2024/04/11 13:05:51;;;;;;;6.00;3.40;;;;;;;19.90;50.50;100260.20;227038;1272;22915;-74
2024/04/11 13:10:55;;;;;;;4.30;3.80;;;;;;;19.93;50.41;100259.19;226857;1257;22575;-75
2024/04/11 13:16:00;;;;;;;6.90;3.80;;;;;;;19.96;50.02;100254.60;226715;1254;203416;-75
2024/04/11 13:21:13;;;;;;;4.50;3.50;;;;;;;19.95;50.25;100253.73;226847;1253;22549;-75
2024/04/11 13:26:16;;;;;;;4.10;3.00;;;;;;;19.94;50.23;100256.46;226899;1261;22547;-74
2024/04/11 13:31:20;;;;;;;4.60;3.20;;;;;;;19.71;50.34;100248.91;226827;1251;22562;-73
2024/04/11 13:36:23;;;;;;;4.10;3.20;;;;;;;19.48;50.35;100249.08;226950;1267;25335;-75
2024/04/11 13:46:50;;;;;;;4.60;3.60;;;;;;;19.19;50.81;100237.73;226986;1257;22546;-72
2024/04/11 13:51:52;;;;;;;8.20;3.30;;;;;;;19.08;50.81;100233.22;226873;1266;22527;-73
2024/04/11 13:56:59;;;;;;;3.10;2.80;;;;;;;19.08;51.38;100233.09;226981;1262;22565;-73
2024/04/11 14:02:30;;;;;;;4.10;3.50;;;;;;;19.15;51.39;100230.65;226700;1266;22542;-73
2024/04/11 14:07:27;;;;;;;3.90;3.20;;;;;;;19.14;51.23;100225.68;226919;1268;22670;-73
2024/04/11 14:12:29;;;;;;;3.10;2.80;;;;;;;19.05;50.92;100221.88;226820;1266;22565;-74
2024/04/11 14:17:31;;;;;;;3.80;2.90;;;;;;;18.98;51.45;100227.51;226784;1270;22551;-74
2024/04/11 14:22:41;;;;;;;4.00;3.00;;;;;;;18.94;51.38;100230.30;226891;1270;22529;-74
2024/04/11 14:27:43;;;;;;;4.00;3.40;;;;;;;18.97;51.64;100220.66;226957;1272;22688;-73
2024/04/11 14:38:07;;;;;;;3.20;2.90;;;;;;;18.98;51.62;100224.89;227337;1270;22539;-73
2024/04/11 14:43:09;;;;;;;5.00;3.50;;;;;;;18.79;51.36;100219.09;227355;1270;22552;-74
2024/04/11 14:48:20;;;;;;;5.20;2.70;;;;;;;18.70;51.71;100214.69;227342;1270;22543;-74
2024/04/11 14:53:24;;;;;;;4.20;2.60;;;;;;;18.69;51.86;100208.13;227344;1269;22579;-73
2024/04/11 14:58:36;;;;;;;3.40;2.20;;;;;;;18.63;51.79;100207.72;227336;1272;22596;-74
2024/04/11 15:03:47;;;;;;;3.10;2.30;;;;;;;18.55;51.84;100202.70;227302;1272;22592;-73
2024/04/11 15:08:53;;;;;;;3.30;2.20;;;;;;;18.53;52.19;100201.52;227334;1270;22543;-73
2024/04/11 15:13:55;;;;;;;2.60;2.20;;;;;;;18.55;52.29;100199.61;227073;1270;22606;-74
2024/04/11 15:18:56;;;;;;;2.30;1.90;;;;;;;18.59;52.53;100198.27;227251;1270;22549;-74
2024/04/11 15:23:59;;;;;;;4.30;2.20;;;;;;;18.50;52.60;100195.52;227245;1270;22531;-74
2024/04/11 15:29:21;;;;;;;4.30;2.60;;;;;;;18.43;52.68;100195.91;227255;1272;22536;-74
2024/04/11 15:34:29;;;;;;;4.50;2.60;;;;;;;18.40;52.70;100190.36;227303;1270;22594;-74
2024/04/11 15:39:31;;;;;;;3.50;2.30;;;;;;;18.32;52.92;100186.02;227080;1270;22543;-73
2024/04/11 15:44:37;;;;;;;3.30;2.20;;;;;;;18.21;53.04;100184.73;227323;1270;22564;-73
2024/04/11 15:49:39;;;;;;;4.00;2.60;;;;;;;18.10;53.22;100188.17;227334;1272;22543;-74
2024/04/11 15:55:47;;;;;;;4.90;2.50;;;;;;;18.01;53.31;100186.77;227333;1263;22531;-74
2024/04/11 16:00:10;;;;;;;3.10;2.80;;;;;;;17.89;53.35;100184.33;227267;1272;22561;-73
2024/04/11 16:05:24;;;;;;;3.60;3.10;;;;;;;17.80;53.81;100185.98;227296;1272;21791;-74
2024/04/11 16:10:27;;;;;;;4.10;3.20;;;;;;;17.70;53.95;100187.46;227318;1270;22545;-74
2024/04/11 16:15:30;;;;;;;4.20;3.20;;;;;;;17.57;54.06;100185.85;227100;1270;22542;-74
2024/04/11 16:20:33;;;;;;;4.00;3.00;;;;;;;17.43;54.32;100185.58;227235;1269;22563;-74
2024/04/11 16:25:39;;;;;;;11.60;4.60;;;;;;;17.27;54.47;100183.15;227246;1251;22538;-73
2024/04/11 16:36:03;;;;;;;6.70;4.20;;;;;;;17.04;55.00;100179.85;227355;1270;22550;-73
2024/04/11 16:41:06;;;;;;;5.60;4.40;;;;;;;16.91;55.24;100179.29;227324;1272;22632;-73
2024/04/11 16:46:08;;;;;;;4.70;3.50;;;;;;;16.70;55.16;100182.09;227255;1272;22534;-73
2024/04/11 16:51:10;;;;;;;5.20;4.10;;;;;;;16.49;55.54;100180.05;227353;1270;22523;-73
2024/04/11 16:56:18;;;;;;;5.60;4.00;;;;;;;16.34;55.91;100181.17;227097;1270;23290;-74
2024/04/11 17:01:19;;;;;;;5.00;4.30;;;;;;;16.13;55.95;100174.97;227031;1267;22536;-74
2024/04/11 17:06:26;;;;;;;4.40;3.90;;;;;;;15.93;56.20;100173.64;227313;1272;22543;-74
2024/04/11 17:11:35;;;;;;;6.30;4.10;;;;;;;15.73;56.31;100172.88;227367;1270;22549;-74
2024/04/11 17:17:14;;;;;;;4.90;3.50;;;;;;;15.52;56.64;100166.70;227291;1270;22566;-74
2024/04/11 17:22:05;;;;;;;5.50;4.00;;;;;;;15.30;56.98;100169.56;227387;1269;24507;-74
2024/04/11 17:27:07;;;;;;;7.90;4.70;;;;;;;15.09;57.43;100171.05;227386;1272;22582;-74
2024/04/11 17:32:12;;;;;;;5.50;4.50;;;;;;;14.85;57.69;100171.60;227363;1263;22619;-74
2024/04/11 17:37:14;;;;;;;7.20;4.40;;;;;;;14.61;58.45;100179.77;227291;1270;22638;-73
2024/04/11 17:42:23;;;;;;;6.20;4.20;;;;;;;14.39;58.40;100182.59;227356;1270;23014;-74
2024/04/11 17:47:31;;;;;;;6.70;3.80;;;;;;;14.20;58.98;100186.88;227334;1270;22671;-74
2024/04/11 17:52:44;;;;;;;6.90;4.20;;;;;;;14.00;59.10;100190.23;227320;1272;22545;-73
2024/04/11 17:57:50;;;;;;;6.80;3.70;;;;;;;13.79;59.43;100194.85;227319;1270;22704;-73
2024/04/11 18:02:53;;;;;;;7.50;4.10;;;;;;;13.59;60.27;100198.23;227298;1270;22654;-74
2024/04/11 18:08:02;;;;;;;7.00;3.80;;;;;;;13.39;60.42;100208.14;227281;1269;22570;-73
2024/04/11 18:13:06;;;;;;;6.40;3.40;;;;;;;13.20;60.57;100212.30;227307;1268;25405;-73
2024/04/11 18:18:11;;;;;;;5.90;3.70;;;;;;;13.04;60.97;100216.05;227304;1272;22579;-73
2024/04/11 18:23:15;;;;;;;6.30;3.80;;;;;;;12.88;61.29;100225.02;227348;1272;22542;-73
2024/04/11 18:28:25;;;;;;;7.20;4.00;;;;;;;12.73;61.46;100228.79;227043;1272;22532;-74
2024/04/11 18:33:30;;;;;;;7.50;4.50;;;;;;;12.58;61.82;100233.81;227308;1270;22562;-74
2024/04/11 18:38:33;;;;;;;7.70;4.90;;;;;;;12.45;62.32;100237.31;227354;1270;22540;-74
2024/04/11 18:43:36;;;;;;;8.00;4.10;;;;;;;12.35;62.41;100246.71;227408;1264;22566;-74
2024/04/11 18:48:38;;;;;;;5.90;4.40;;;;;;;12.25;62.82;100247.40;227343;1269;25268;-74
2024/04/11 18:53:42;;;;;;;7.60;4.80;;;;;;;12.17;63.16;100252.52;227330;1270;22550;-73
2024/04/11 18:58:45;;;;;;;12.20;4.50;;;;;;;12.09;63.52;100250.42;227308;1270;22571;-73
2024/04/11 19:03:47;;;;;;;10.90;4.50;;;;;;;11.99;63.63;100246.00;227342;1264;22556;-73
2024/04/11 19:08:48;;;;;;;11.10;4.50;;;;;;;11.87;64.33;100248.48;227325;1269;22537;-73
2024/04/11 19:13:54;;;;;;;9.10;5.00;;;;;;;11.74;64.72;100252.25;227300;1272;22544;-73
2024/04/11 19:18:57;;;;;;;9.20;5.20;;;;;;;11.60;64.95;100255.77;227336;1270;23303;-73
2024/04/11 19:24:11;;;;;;;7.60;5.20;;;;;;;11.47;65.32;100258.18;227363;1269;22527;-73
2024/04/11 19:29:21;;;;;;;10.10;5.50;;;;;;;11.35;65.96;100261.96;227366;1269;22555;-73
2024/04/11 19:34:26;;;;;;;12.40;6.90;;;;;;;11.23;66.37;100261.10;227085;1267;22564;-74
2024/04/11 19:39:28;;;;;;;9.70;6.90;;;;;;;11.12;66.74;100267.00;227099;1266;25303;-74
2024/04/11 19:44:31;;;;;;;11.10;7.70;;;;;;;11.00;67.34;100270.67;227365;1270;23428;-74
2024/04/11 19:49:34;;;;;;;11.90;7.80;;;;;;;10.88;67.45;100273.00;227306;1266;22552;-73
2024/04/11 19:54:46;;;;;;;13.10;8.40;;;;;;;10.78;67.95;100274.81;227324;1269;22546;-73
2024/04/11 19:59:51;;;;;;;14.90;8.80;;;;;;;10.67;68.17;100274.84;227352;1272;22622;-73
2024/04/11 20:04:56;;;;;;;12.70;8.80;;;;;;;10.57;68.37;100269.80;227338;1272;22550;-73
2024/04/11 20:10:03;;;;;;;16.20;10.90;;;;;;;10.48;68.50;100275.96;227395;1269;22548;-74
2024/04/11 20:15:26;;;;;;;16.80;10.80;;;;;;;10.39;68.80;100277.13;227351;1270;25569;-73
2024/04/11 20:20:31;;;;;;;13.20;9.80;;;;;;;10.29;69.12;100277.54;227346;1270;25956;-73
2024/04/11 20:25:33;;;;;;;12.30;9.50;;;;;;;10.21;69.28;100280.59;227324;1269;22543;-74
2024/04/11 20:30:36;;;;;;;11.80;9.40;;;;;;;10.13;69.38;100281.80;227384;1266;22901;-74
2024/04/11 20:35:43;;;;;;;16.90;9.80;;;;;;;10.06;69.62;100279.20;227342;1268;22522;-73
2024/04/11 20:40:46;;;;;;;16.00;10.30;;;;;;;9.99;69.74;100286.08;227334;1269;22527;-73
2024/04/11 20:45:50;;;;;;;13.10;10.40;;;;;;;9.92;70.25;100281.48;227344;1270;23007;-72
2024/04/11 21:33:48;;;;;;;24.10;15.20;;;;;;;9.14;73.19;100307.98;227373;1269;22917;-74
2024/04/11 21:38:51;;;;;;;23.30;15.40;;;;;;;9.02;73.63;100306.09;227381;1272;22571;-73
2024/04/11 21:43:59;;;;;;;24.80;17.40;;;;;;;8.93;74.00;100306.05;227396;1272;22533;-73
2024/04/11 21:49:01;;;;;;;24.00;17.60;;;;;;;8.85;74.25;100305.41;227393;1268;24903;-75
2024/04/11 21:54:07;;;;;;;25.30;17.70;;;;;;;8.78;74.32;100310.05;227376;1264;24841;-74
2024/04/11 21:59:14;;;;;;;23.50;16.20;;;;;;;8.70;74.54;100314.50;227368;1265;25401;-74
2024/04/11 22:04:18;;;;;;;22.30;16.20;;;;;;;8.62;74.73;100319.77;227356;1269;22571;-73
2024/04/11 22:09:21;;;;;;;22.40;16.30;;;;;;;8.55;74.98;100321.51;227385;1264;22558;-73
2024/04/11 22:14:30;;;;;;;25.70;15.00;;;;;;;8.48;75.03;100322.45;227344;1268;25496;-73
2024/04/11 22:19:38;;;;;;;23.60;16.20;;;;;;;8.43;75.46;100322.02;227334;1266;22606;-74
2024/04/11 22:24:46;;;;;;;22.50;15.70;;;;;;;8.39;75.72;100328.36;227268;1267;22550;-74
2024/04/11 22:29:53;;;;;;;26.30;16.80;;;;;;;8.35;76.12;100327.98;227312;1268;22573;-74
2024/04/11 22:34:57;;;;;;;23.20;16.70;;;;;;;8.31;76.23;100328.35;227059;1270;22534;-74
2024/04/11 22:40:00;;;;;;;28.40;19.80;;;;;;;8.25;76.14;100329.60;227163;1272;22545;-74
2024/04/11 22:45:05;;;;;;;32.80;23.60;;;;;;;8.18;76.17;100329.66;227423;1270;22633;-74
2024/04/11 22:50:15;;;;;;;36.20;24.20;;;;;;;8.10;76.40;100329.64;227413;1266;22579;-74
2024/04/11 22:55:24;;;;;;;;;;;;;;;8.02;76.50;100331.36;227353;1270;22606;-74
2024/04/11 23:00:35;;;;;;;35.80;24.50;;;;;;;7.95;76.49;100334.83;227358;1272;22480;-74
2024/04/11 23:05:51;;;;;;;39.80;26.50;;;;;;;7.89;76.65;100327.11;227338;1270;22531;-73
2024/04/11 23:10:56;;;;;;;41.60;27.80;;;;;;;7.84;76.98;100325.27;227354;1272;22647;-73
2024/04/11 23:16:04;;;;;;;41.90;29.30;;;;;;;7.80;77.04;100321.95;227398;1270;22550;-74
2024/04/11 23:21:15;;;;;;;45.80;29.20;;;;;;;7.74;76.93;100317.66;227334;1270;22546;-73
2024/04/11 23:26:17;;;;;;;37.90;25.80;;;;;;;7.69;77.02;100313.59;227371;1264;22612;-73
2024/04/11 23:31:20;;;;;;;29.80;22.40;;;;;;;7.61;76.93;100305.14;227308;1253;22580;-74
2024/04/11 23:36:24;;;;;;;32.70;21.80;;;;;;;7.54;77.17;100301.16;227352;1264;22546;-73
2024/04/11 23:41:31;;;;;;;29.20;21.30;;;;;;;7.47;77.22;100296.53;227318;1272;22522;-73
2024/04/11 23:46:37;;;;;;;31.50;22.00;;;;;;;7.40;76.97;100292.39;227364;1272;22539;-73
2024/04/11 23:51:45;;;;;;;29.40;21.50;;;;;;;7.34;77.28;100295.14;227114;1269;22557;-74
2024/04/11 23:56:58;;;;;;;25.90;19.70;;;;;;;7.30;77.31;100304.78;227383;1272;22709;-74
